createdAt,value
2022-09-15T00:00:50.770Z,16.96
2022-09-15T00:01:52.327Z,16.96
2022-09-15T00:02:53.940Z,16.98
2022-09-15T00:03:55.794Z,16.93
2022-09-15T00:04:57.340Z,16.95
2022-09-15T00:05:58.898Z,16.93
2022-09-15T00:07:00.402Z,16.96
2022-09-15T00:08:02.111Z,16.93
2022-09-15T00:09:04.017Z,16.92
2022-09-15T00:10:06.650Z,16.95
2022-09-15T00:11:10.103Z,16.99
2022-09-15T00:12:11.599Z,16.94
2022-09-15T00:13:13.101Z,16.96
2022-09-15T00:14:14.587Z,16.97
2022-09-15T00:15:16.209Z,16.99
2022-09-15T00:16:19.277Z,16.98
2022-09-15T00:17:20.847Z,16.92
2022-09-15T00:18:22.350Z,16.93
2022-09-15T00:19:23.852Z,16.94
2022-09-15T00:20:25.358Z,16.86
2022-09-15T00:21:30.033Z,16.84
2022-09-15T00:22:31.533Z,16.86
2022-09-15T00:23:33.345Z,16.90
2022-09-15T00:24:34.850Z,16.91
2022-09-15T00:25:42.388Z,16.98
2022-09-15T00:26:43.891Z,17.02
2022-09-15T00:27:45.801Z,17.03
2022-09-15T00:28:48.124Z,16.96
2022-09-15T00:29:49.625Z,16.97
2022-09-15T00:30:53.143Z,16.96
2022-09-15T00:31:54.734Z,16.93
2022-09-15T00:32:56.181Z,16.92
2022-09-15T00:34:00.135Z,16.88
2022-09-15T00:35:01.640Z,16.85
2022-09-15T00:36:06.111Z,16.88
2022-09-15T00:37:07.510Z,16.82
2022-09-15T00:38:10.435Z,16.80
2022-09-15T00:39:11.949Z,16.80
2022-09-15T00:40:13.485Z,16.79
2022-09-15T00:41:17.509Z,16.83
2022-09-15T00:42:22.130Z,16.84
2022-09-15T00:43:56.337Z,16.84
2022-09-15T00:45:00.600Z,16.83
2022-09-15T00:46:02.194Z,16.84
2022-09-15T00:47:21.553Z,16.86
2022-09-15T00:48:23.320Z,16.88
2022-09-15T00:49:29.121Z,16.90
2022-09-15T00:50:32.364Z,16.93
2022-09-15T00:51:51.163Z,17.00
2022-09-15T00:52:59.320Z,17.03
2022-09-15T00:54:03.993Z,16.98
2022-09-15T00:55:25.347Z,17.02
2022-09-15T00:56:27.464Z,17.07
2022-09-15T00:57:31.418Z,17.08
2022-09-15T00:58:45.204Z,17.08
2022-09-15T00:59:48.137Z,17.11
2022-09-15T01:00:56.043Z,17.07
2022-09-15T01:02:05.577Z,17.01
2022-09-15T01:03:07.176Z,16.96
2022-09-15T01:04:09.295Z,16.99
2022-09-15T01:05:13.763Z,17.02
2022-09-15T01:06:26.933Z,16.98
2022-09-15T01:08:03.229Z,16.94
2022-09-15T01:09:29.903Z,16.95
2022-09-15T01:10:34.584Z,16.94
2022-09-15T01:11:36.489Z,16.98
2022-09-15T01:12:40.449Z,17.01
2022-09-15T01:13:41.950Z,17.04
2022-09-15T01:14:43.459Z,17.08
2022-09-15T01:15:50.584Z,17.12
2022-09-15T01:17:29.135Z,17.18
2022-09-15T01:19:15.356Z,17.21
2022-09-15T01:20:46.433Z,17.23
2022-09-15T01:22:16.791Z,17.21
2022-09-15T01:23:45.345Z,17.10
2022-09-15T01:25:24.164Z,17.11
2022-09-15T01:26:53.403Z,17.07
2022-09-15T01:28:34.711Z,17.05
2022-09-15T01:29:39.797Z,17.09
2022-09-15T01:30:50.409Z,17.10
2022-09-15T01:32:03.194Z,17.10
2022-09-15T01:33:21.453Z,17.12
2022-09-15T01:34:26.328Z,17.11
2022-09-15T01:35:51.572Z,17.16
2022-09-15T01:37:03.410Z,17.14
2022-09-15T01:38:29.169Z,17.12
2022-09-15T01:39:37.427Z,17.12
2022-09-15T01:40:48.414Z,17.08
2022-09-15T01:42:03.658Z,17.12
2022-09-15T01:43:06.597Z,17.16
2022-09-15T01:44:13.416Z,17.15
2022-09-15T01:45:26.523Z,17.20
2022-09-15T01:46:32.906Z,17.21
2022-09-15T01:47:36.450Z,17.21
2022-09-15T01:48:40.100Z,17.21
2022-09-15T01:49:55.318Z,17.19
2022-09-15T01:51:00.500Z,17.16
2022-09-15T01:52:02.313Z,17.15
2022-09-15T01:53:10.362Z,17.07
2022-09-15T01:54:13.911Z,17.10
2022-09-15T01:55:30.258Z,17.18
2022-09-15T01:56:31.857Z,17.22
2022-09-15T01:57:33.460Z,17.26
2022-09-15T01:58:36.907Z,17.23
2022-09-15T01:59:38.415Z,17.21
2022-09-15T02:00:47.608Z,17.23
2022-09-15T02:02:04.277Z,17.22
2022-09-15T02:03:18.018Z,17.22
2022-09-15T02:04:38.656Z,17.12
2022-09-15T02:05:45.071Z,17.11
2022-09-15T02:06:55.377Z,17.18
2022-09-15T02:08:11.821Z,17.21
2022-09-15T02:09:18.859Z,17.23
2022-09-15T02:10:32.424Z,17.22
2022-09-15T02:11:36.589Z,17.25
2022-09-15T02:12:52.624Z,17.25
2022-09-15T02:14:20.322Z,17.28
2022-09-15T02:15:28.889Z,17.26
2022-09-15T02:16:35.166Z,17.24
2022-09-15T02:17:42.705Z,17.19
2022-09-15T02:18:51.311Z,17.14
2022-09-15T02:20:21.354Z,17.17
2022-09-15T02:21:30.228Z,17.13
2022-09-15T02:22:37.767Z,17.05
2022-09-15T02:23:45.101Z,17.01
2022-09-15T02:24:55.920Z,16.97
2022-09-15T02:26:03.046Z,17.00
2022-09-15T02:27:10.385Z,16.98
2022-09-15T02:28:14.549Z,16.97
2022-09-15T02:29:19.632Z,16.97
2022-09-15T02:30:22.053Z,16.97
2022-09-15T02:31:25.381Z,16.98
2022-09-15T02:32:30.585Z,17.05
2022-09-15T02:33:38.737Z,17.07
2022-09-15T02:34:45.460Z,17.06
2022-09-15T02:35:47.576Z,17.03
2022-09-15T02:36:51.139Z,17.04
2022-09-15T02:37:54.063Z,17.00
2022-09-15T02:39:02.009Z,16.90
2022-09-15T02:40:05.013Z,16.90
2022-09-15T02:41:06.754Z,16.87
2022-09-15T02:42:09.184Z,16.88
2022-09-15T02:43:16.823Z,16.92
2022-09-15T02:44:18.329Z,16.94
2022-09-15T02:45:20.336Z,16.96
2022-09-15T02:46:23.073Z,16.96
2022-09-15T02:47:25.291Z,16.96
2022-09-15T02:48:26.791Z,16.94
2022-09-15T02:49:28.294Z,16.95
2022-09-15T02:50:30.101Z,16.95
2022-09-15T02:51:31.603Z,17.01
2022-09-15T02:52:33.118Z,17.02
2022-09-15T02:53:34.818Z,17.02
2022-09-15T02:54:36.321Z,17.00
2022-09-15T02:55:37.824Z,17.02
2022-09-15T02:56:39.321Z,17.03
2022-09-15T02:57:40.824Z,17.08
2022-09-15T02:58:43.252Z,17.08
2022-09-15T02:59:44.751Z,17.08
2022-09-15T03:00:46.295Z,17.05
2022-09-15T03:01:47.907Z,17.10
2022-09-15T03:02:52.534Z,17.11
2022-09-15T03:03:54.036Z,17.15
2022-09-15T03:04:55.539Z,17.19
2022-09-15T03:05:57.046Z,17.20
2022-09-15T03:06:58.545Z,17.18
2022-09-15T03:08:00.046Z,17.22
2022-09-15T03:09:07.792Z,17.23
2022-09-15T03:10:11.986Z,17.23
2022-09-15T03:11:13.660Z,17.27
2022-09-15T03:12:15.167Z,17.23
2022-09-15T03:13:16.669Z,17.25
2022-09-15T03:14:18.168Z,17.26
2022-09-15T03:15:22.130Z,17.25
2022-09-15T03:16:24.997Z,17.19
2022-09-15T03:17:26.461Z,17.16
2022-09-15T03:18:27.968Z,17.11
2022-09-15T03:19:29.404Z,17.07
2022-09-15T03:20:30.869Z,17.02
2022-09-15T03:21:32.473Z,17.05
2022-09-15T03:22:34.490Z,17.08
2022-09-15T03:23:36.299Z,17.10
2022-09-15T03:24:38.518Z,17.10
2022-09-15T03:25:39.951Z,17.12
2022-09-15T03:26:41.624Z,17.08
2022-09-15T03:27:43.230Z,17.14
2022-09-15T03:28:44.728Z,17.11
2022-09-15T03:29:46.231Z,17.13
2022-09-15T03:30:47.666Z,17.12
2022-09-15T03:31:49.219Z,17.10
2022-09-15T03:32:50.743Z,17.06
2022-09-15T03:33:52.242Z,17.07
2022-09-15T03:34:57.708Z,17.06
2022-09-15T03:36:00.264Z,17.06
2022-09-15T03:37:01.767Z,17.05
2022-09-15T03:38:03.374Z,17.05
2022-09-15T03:39:04.772Z,16.99
2022-09-15T03:40:06.567Z,17.00
2022-09-15T03:41:10.219Z,16.92
2022-09-15T03:42:11.735Z,16.90
2022-09-15T03:43:17.999Z,16.87
2022-09-15T03:44:20.162Z,16.95
2022-09-15T03:45:21.564Z,16.93
2022-09-15T03:46:23.168Z,16.97
2022-09-15T03:47:25.080Z,16.96
2022-09-15T03:48:28.428Z,16.95
2022-09-15T03:49:29.977Z,16.97
2022-09-15T03:50:32.761Z,16.97
2022-09-15T03:51:34.161Z,16.96
2022-09-15T03:52:35.664Z,16.96
2022-09-15T03:53:40.135Z,16.96
2022-09-15T03:54:41.633Z,16.94
2022-09-15T03:55:43.855Z,16.96
2022-09-15T03:56:45.360Z,16.94
2022-09-15T03:57:46.865Z,16.95
2022-09-15T03:58:48.463Z,16.98
2022-09-15T03:59:49.899Z,16.99
2022-09-15T04:00:51.410Z,17.04
2022-09-15T04:01:53.002Z,17.01
2022-09-15T04:02:54.787Z,17.05
2022-09-15T04:03:56.796Z,17.02
2022-09-15T04:04:58.298Z,17.01
2022-09-15T04:05:59.903Z,17.01
2022-09-15T04:07:01.408Z,17.01
2022-09-15T04:08:03.117Z,16.99
2022-09-15T04:09:05.127Z,17.03
2022-09-15T04:10:08.047Z,17.07
2022-09-15T04:11:11.304Z,17.05
2022-09-15T04:12:12.808Z,17.03
2022-09-15T04:13:14.310Z,17.04
2022-09-15T04:14:15.711Z,17.02
2022-09-15T04:15:17.315Z,17.05
2022-09-15T04:16:21.069Z,17.02
2022-09-15T04:17:22.674Z,17.00
2022-09-15T04:18:24.172Z,17.03
2022-09-15T04:19:25.675Z,17.10
2022-09-15T04:20:27.283Z,17.12
2022-09-15T04:21:28.786Z,17.12
2022-09-15T04:22:31.622Z,17.11
2022-09-15T04:23:33.941Z,17.12
2022-09-15T04:24:35.336Z,17.09
2022-09-15T04:25:36.667Z,17.10
2022-09-15T04:26:38.141Z,17.11
2022-09-15T04:27:39.644Z,17.13
2022-09-15T04:28:41.117Z,17.12
2022-09-15T04:29:43.237Z,17.17
2022-09-15T04:30:44.663Z,17.18
2022-09-15T04:31:46.291Z,17.17
2022-09-15T04:32:47.873Z,17.18
2022-09-15T04:33:52.647Z,17.16
2022-09-15T04:34:54.153Z,17.14
2022-09-15T04:36:00.874Z,17.18
2022-09-15T04:37:02.376Z,17.19
2022-09-15T04:38:03.878Z,17.22
2022-09-15T04:39:05.484Z,17.25
2022-09-15T04:40:07.631Z,17.30
2022-09-15T04:41:10.525Z,17.27
2022-09-15T04:42:11.934Z,17.31
2022-09-15T04:43:13.421Z,17.29
2022-09-15T04:44:14.940Z,17.30
2022-09-15T04:45:16.549Z,17.33
2022-09-15T04:46:19.006Z,17.37
2022-09-15T04:47:20.574Z,17.39
2022-09-15T04:48:22.688Z,17.36
2022-09-15T04:49:24.193Z,17.35
2022-09-15T04:50:25.695Z,17.41
2022-09-15T04:51:36.688Z,17.43
2022-09-15T04:52:38.115Z,17.47
2022-09-15T04:53:40.026Z,17.47
2022-09-15T04:54:41.530Z,17.48
2022-09-15T04:55:43.137Z,17.45
2022-09-15T04:56:44.739Z,17.44
2022-09-15T04:57:46.136Z,17.48
2022-09-15T04:59:03.575Z,17.52
2022-09-15T05:00:06.233Z,17.52
2022-09-15T05:01:10.785Z,17.56
2022-09-15T05:02:12.382Z,17.60
2022-09-15T05:03:14.118Z,17.58
2022-09-15T05:04:15.620Z,17.56
2022-09-15T05:05:17.124Z,17.58
2022-09-15T05:06:22.106Z,17.58
2022-09-15T05:07:23.607Z,17.61
2022-09-15T05:08:25.111Z,17.59
2022-09-15T05:09:26.613Z,17.61
2022-09-15T05:10:28.115Z,17.63
2022-09-15T05:11:29.619Z,17.58
2022-09-15T05:12:31.122Z,17.56
2022-09-15T05:13:34.060Z,17.59
2022-09-15T05:14:35.558Z,17.58
2022-09-15T05:15:37.060Z,17.51
2022-09-15T05:16:38.723Z,17.44
2022-09-15T05:17:40.168Z,17.34
2022-09-15T05:18:43.205Z,17.25
2022-09-15T05:19:44.705Z,17.20
2022-09-15T05:20:46.178Z,17.12
2022-09-15T05:21:47.614Z,16.96
2022-09-15T05:22:49.113Z,16.79
2022-09-15T05:23:50.974Z,16.70
2022-09-15T05:24:52.523Z,16.69
2022-09-15T05:25:55.868Z,16.70
2022-09-15T05:26:57.372Z,16.62
2022-09-15T05:27:58.834Z,16.51
2022-09-15T05:29:00.285Z,16.46
2022-09-15T05:30:31.776Z,16.50
2022-09-15T05:31:27.700Z,16.38
2022-09-15T05:32:29.138Z,16.41
2022-09-15T05:33:30.451Z,16.36
2022-09-15T05:34:31.938Z,16.33
2022-09-15T05:35:33.340Z,16.35
2022-09-15T05:36:34.694Z,16.32
2022-09-15T05:37:36.140Z,16.30
2022-09-15T05:38:37.542Z,16.23
2022-09-15T05:39:39.042Z,16.15
2022-09-15T05:40:40.444Z,16.14
2022-09-15T05:41:41.944Z,16.13
2022-09-15T05:42:43.449Z,16.15
2022-09-15T05:43:46.518Z,16.11
2022-09-15T05:44:47.992Z,16.15
2022-09-15T05:45:54.617Z,16.14
2022-09-15T05:46:56.142Z,16.09
2022-09-15T05:47:57.716Z,16.10
2022-09-15T05:48:59.127Z,16.12
2022-09-15T05:50:00.619Z,16.15
2022-09-15T05:51:03.144Z,16.21
2022-09-15T05:52:04.607Z,16.27
2022-09-15T05:53:06.621Z,16.34
2022-09-15T05:54:08.166Z,16.37
2022-09-15T05:55:09.668Z,16.42
2022-09-15T05:56:12.807Z,16.37
2022-09-15T05:57:14.410Z,16.43
2022-09-15T05:58:15.912Z,16.48
2022-09-15T05:59:17.314Z,16.49
2022-09-15T06:00:18.813Z,16.53
2022-09-15T06:01:23.092Z,16.56
2022-09-15T06:02:24.623Z,16.60
2022-09-15T06:03:30.675Z,16.66
2022-09-15T06:04:32.501Z,16.69
2022-09-15T06:05:34.106Z,16.66
2022-09-15T06:06:35.608Z,16.65
2022-09-15T06:07:37.214Z,16.69
2022-09-15T06:08:44.252Z,16.69
2022-09-15T06:09:45.949Z,16.58
2022-09-15T06:10:47.451Z,16.63
2022-09-15T06:11:48.883Z,16.66
2022-09-15T06:12:52.810Z,16.67
2022-09-15T06:13:54.210Z,16.71
2022-09-15T06:14:55.543Z,16.75
2022-09-15T06:16:01.331Z,16.77
2022-09-15T06:17:02.812Z,16.79
2022-09-15T06:18:04.418Z,16.78
2022-09-15T06:19:05.921Z,16.77
2022-09-15T06:20:07.829Z,16.78
2022-09-15T06:21:11.891Z,16.78
2022-09-15T06:22:13.395Z,16.78
2022-09-15T06:23:14.897Z,16.75
2022-09-15T06:24:16.398Z,16.81
2022-09-15T06:25:18.004Z,16.82
2022-09-15T06:26:20.119Z,16.83
2022-09-15T06:27:21.741Z,16.80
2022-09-15T06:28:23.330Z,16.80
2022-09-15T06:29:24.835Z,16.81
2022-09-15T06:30:26.526Z,16.81
2022-09-15T06:31:31.246Z,16.84
2022-09-15T06:32:32.820Z,16.83
2022-09-15T06:33:34.322Z,16.84
2022-09-15T06:34:35.824Z,16.69
2022-09-15T06:35:37.326Z,16.72
2022-09-15T06:36:38.830Z,16.80
2022-09-15T06:37:40.229Z,16.83
2022-09-15T06:38:42.016Z,16.87
2022-09-15T06:39:43.542Z,16.88
2022-09-15T06:40:44.967Z,16.92
2022-09-15T06:42:02.353Z,16.95
2022-09-15T06:43:05.139Z,16.94
2022-09-15T06:44:06.641Z,16.96
2022-09-15T06:45:08.450Z,16.95
2022-09-15T06:46:12.651Z,16.99
2022-09-15T06:47:17.290Z,17.05
2022-09-15T06:48:24.923Z,16.96
2022-09-15T06:49:26.740Z,16.97
2022-09-15T06:50:31.110Z,16.99
2022-09-15T06:51:32.816Z,17.03
2022-09-15T06:52:34.296Z,16.97
2022-09-15T06:53:37.152Z,16.97
2022-09-15T06:54:38.654Z,17.01
2022-09-15T06:55:40.156Z,17.03
2022-09-15T06:56:42.070Z,17.01
2022-09-15T06:57:43.468Z,17.03
2022-09-15T06:58:46.176Z,17.07
2022-09-15T06:59:47.702Z,17.11
2022-09-15T07:00:49.205Z,17.09
2022-09-15T07:01:54.850Z,17.12
2022-09-15T07:02:56.503Z,17.10
2022-09-15T07:03:59.955Z,17.08
2022-09-15T07:05:01.456Z,17.05
2022-09-15T07:06:03.778Z,17.03
2022-09-15T07:07:05.379Z,17.03
2022-09-15T07:08:06.887Z,17.06
2022-09-15T07:09:08.388Z,17.04
2022-09-15T07:10:09.891Z,17.08
2022-09-15T07:11:11.388Z,17.06
2022-09-15T07:12:12.839Z,17.02
2022-09-15T07:13:14.399Z,16.96
2022-09-15T07:14:15.897Z,16.99
2022-09-15T07:15:17.402Z,16.99
2022-09-15T07:16:20.213Z,17.00
2022-09-15T07:17:21.842Z,16.98
2022-09-15T07:18:23.957Z,16.94
2022-09-15T07:19:25.459Z,16.95
2022-09-15T07:20:26.961Z,16.90
2022-09-15T07:21:28.465Z,16.91
2022-09-15T07:22:30.004Z,16.90
2022-09-15T07:23:33.004Z,16.81
2022-09-15T07:24:34.404Z,16.78
2022-09-15T07:25:35.908Z,16.79
2022-09-15T07:26:37.817Z,16.85
2022-09-15T07:27:39.323Z,16.90
2022-09-15T07:28:42.667Z,16.98
2022-09-15T07:29:44.165Z,16.99
2022-09-15T07:30:50.992Z,17.00
2022-09-15T07:31:52.435Z,16.96
2022-09-15T07:32:53.994Z,17.01
2022-09-15T07:33:55.503Z,17.06
2022-09-15T07:34:58.453Z,17.07
2022-09-15T07:36:04.854Z,17.12
2022-09-15T07:37:06.967Z,17.11
2022-09-15T07:38:08.570Z,17.17
2022-09-15T07:39:10.267Z,17.21
2022-09-15T07:40:11.743Z,17.21
2022-09-15T07:41:25.560Z,17.24
2022-09-15T07:42:27.168Z,17.31
2022-09-15T07:43:28.671Z,17.28
2022-09-15T07:44:30.071Z,17.30
2022-09-15T07:45:32.136Z,17.34
2022-09-15T07:46:34.103Z,17.37
2022-09-15T07:47:35.600Z,17.36
2022-09-15T07:48:37.003Z,17.38
2022-09-15T07:49:38.506Z,17.42
2022-09-15T07:50:40.009Z,17.31
2022-09-15T07:51:41.510Z,17.31
2022-09-15T07:52:43.012Z,17.37
2022-09-15T07:53:46.909Z,17.36
2022-09-15T07:54:48.320Z,17.39
2022-09-15T07:55:53.203Z,17.32
2022-09-15T07:56:54.652Z,17.22
2022-09-15T07:57:57.791Z,17.24
2022-09-15T07:58:59.296Z,17.31
2022-09-15T08:00:00.886Z,17.23
2022-09-15T08:01:10.268Z,17.23
2022-09-15T08:02:17.073Z,17.17
2022-09-15T08:03:18.706Z,17.13
2022-09-15T08:04:20.212Z,17.08
2022-09-15T08:05:22.738Z,17.13
2022-09-15T08:06:26.089Z,17.09
2022-09-15T08:07:27.584Z,17.09
2022-09-15T08:08:30.007Z,17.17
2022-09-15T08:09:31.510Z,17.18
2022-09-15T08:10:34.036Z,17.21
2022-09-15T08:11:35.537Z,17.25
2022-09-15T08:12:37.146Z,17.25
2022-09-15T08:13:38.850Z,17.30
2022-09-15T08:14:40.309Z,17.31
2022-09-15T08:15:41.768Z,17.36
2022-09-15T08:16:43.258Z,17.42
2022-09-15T08:17:44.964Z,17.46
2022-09-15T08:18:46.776Z,17.37
2022-09-15T08:19:48.272Z,17.44
2022-09-15T08:20:49.774Z,17.44
2022-09-15T08:21:51.277Z,17.44
2022-09-15T08:22:52.991Z,17.41
2022-09-15T08:23:57.377Z,17.27
2022-09-15T08:24:58.861Z,17.30
2022-09-15T08:26:00.776Z,17.31
2022-09-15T08:27:02.373Z,17.30
2022-09-15T08:28:03.874Z,17.27
2022-09-15T08:29:05.325Z,17.35
2022-09-15T08:30:07.599Z,17.36
2022-09-15T08:31:10.676Z,17.42
2022-09-15T08:32:12.140Z,17.36
2022-09-15T08:33:13.581Z,17.41
2022-09-15T08:34:16.473Z,17.46
2022-09-15T08:35:19.208Z,17.51
2022-09-15T08:36:21.015Z,17.44
2022-09-15T08:37:22.519Z,17.42
2022-09-15T08:38:24.019Z,17.48
2022-09-15T08:39:25.519Z,17.47
2022-09-15T08:40:34.539Z,17.49
2022-09-15T08:41:40.088Z,17.49
2022-09-15T08:42:44.935Z,17.35
2022-09-15T08:43:54.657Z,17.07
2022-09-15T08:45:07.112Z,16.94
2022-09-15T08:46:14.476Z,16.74
2022-09-15T08:47:35.084Z,16.75
2022-09-15T08:48:41.602Z,16.76
2022-09-15T08:50:04.998Z,16.71
2022-09-15T08:51:15.202Z,16.69
2022-09-15T08:52:23.267Z,16.70
2022-09-15T08:53:34.276Z,16.72
2022-09-15T08:54:35.857Z,16.75
2022-09-15T08:55:39.925Z,16.76
2022-09-15T08:56:43.387Z,16.74
2022-09-15T08:57:44.885Z,16.72
2022-09-15T08:58:46.528Z,16.70
2022-09-15T08:59:47.996Z,16.76
2022-09-15T09:00:51.864Z,16.71
2022-09-15T09:02:02.598Z,16.69
2022-09-15T09:03:35.489Z,16.74
2022-09-15T09:04:55.144Z,16.72
2022-09-15T09:06:37.952Z,16.71
2022-09-15T09:08:04.520Z,16.57
2022-09-15T09:09:12.340Z,16.48
2022-09-15T09:10:31.660Z,16.55
2022-09-15T09:11:51.772Z,16.59
2022-09-15T09:13:05.461Z,16.57
2022-09-15T09:14:18.897Z,16.52
2022-09-15T09:15:35.019Z,16.55
2022-09-15T09:16:46.528Z,16.65
2022-09-15T09:18:06.758Z,16.71
2022-09-15T09:19:14.092Z,16.81
2022-09-15T09:20:56.938Z,16.83
2022-09-15T09:22:15.948Z,16.91
2022-09-15T09:23:23.171Z,17.00
2022-09-15T09:24:43.198Z,17.00
2022-09-15T09:25:45.413Z,17.01
2022-09-15T09:26:55.309Z,16.99
2022-09-15T09:27:58.557Z,17.03
2022-09-15T09:29:02.510Z,17.09
2022-09-15T09:30:13.118Z,17.09
2022-09-15T09:31:19.295Z,17.05
2022-09-15T09:32:25.250Z,17.02
2022-09-15T09:33:38.515Z,17.04
2022-09-15T09:34:48.907Z,16.93
2022-09-15T09:35:51.540Z,16.91
2022-09-15T09:36:58.175Z,16.92
2022-09-15T09:37:59.969Z,16.97
2022-09-15T09:39:02.397Z,17.01
2022-09-15T09:40:04.270Z,17.03
2022-09-15T09:41:11.945Z,17.01
2022-09-15T09:42:16.516Z,16.96
2022-09-15T09:43:18.323Z,16.85
2022-09-15T09:44:20.547Z,16.89
2022-09-15T09:45:22.253Z,16.88
2022-09-15T09:46:23.829Z,16.88
2022-09-15T09:47:28.222Z,16.93
2022-09-15T09:48:29.933Z,17.04
2022-09-15T09:49:35.221Z,16.96
2022-09-15T09:50:40.823Z,17.03
2022-09-15T09:51:49.074Z,17.11
2022-09-15T09:52:50.547Z,17.20
2022-09-15T09:53:53.917Z,17.25
2022-09-15T09:55:09.849Z,17.32
2022-09-15T09:56:27.090Z,17.37
2022-09-15T09:57:31.994Z,17.45
2022-09-15T09:58:33.497Z,17.48
2022-09-15T09:59:43.494Z,17.54
2022-09-15T10:00:45.299Z,17.63
2022-09-15T10:02:06.044Z,17.64
2022-09-15T10:03:19.827Z,17.61
2022-09-15T10:04:22.787Z,17.57
2022-09-15T10:05:24.264Z,17.64
2022-09-15T10:06:29.552Z,17.69
2022-09-15T10:07:33.306Z,17.67
2022-09-15T10:08:36.551Z,17.74
2022-09-15T10:09:38.665Z,17.80
2022-09-15T10:10:49.172Z,17.75
2022-09-15T10:11:54.048Z,17.79
2022-09-15T10:12:56.765Z,17.81
2022-09-15T10:13:58.283Z,17.73
2022-09-15T10:15:02.503Z,17.68
2022-09-15T10:16:06.613Z,17.62
2022-09-15T10:17:16.847Z,17.60
2022-09-15T10:18:36.633Z,17.64
2022-09-15T10:19:59.013Z,17.64
2022-09-15T10:21:03.278Z,17.68
2022-09-15T10:22:05.009Z,17.69
2022-09-15T10:23:26.850Z,17.60
2022-09-15T10:24:38.689Z,17.58
2022-09-15T10:25:58.013Z,17.55
2022-09-15T10:27:14.815Z,17.52
2022-09-15T10:28:19.074Z,17.54
2022-09-15T10:29:23.285Z,17.58
2022-09-15T10:30:25.477Z,17.65
2022-09-15T10:31:30.520Z,17.66
2022-09-15T10:32:31.953Z,17.70
2022-09-15T10:33:36.360Z,17.71
2022-09-15T10:34:37.850Z,17.65
2022-09-15T10:35:42.221Z,17.58
2022-09-15T10:36:44.030Z,17.59
2022-09-15T10:37:45.429Z,17.62
2022-09-15T10:38:52.501Z,17.63
2022-09-15T10:39:56.503Z,17.66
2022-09-15T10:41:11.939Z,17.72
2022-09-15T10:42:37.491Z,17.66
2022-09-15T10:44:02.812Z,17.65
2022-09-15T10:45:28.743Z,17.68
2022-09-15T10:47:07.856Z,17.72
2022-09-15T10:48:30.927Z,17.75
2022-09-15T10:49:50.874Z,17.74
2022-09-15T10:51:07.872Z,17.73
2022-09-15T10:52:45.967Z,17.66
2022-09-15T10:54:20.523Z,17.70
2022-09-15T10:55:48.599Z,17.72
2022-09-15T10:56:52.078Z,17.70
2022-09-15T10:58:11.185Z,17.72
2022-09-15T10:59:31.316Z,17.78
2022-09-15T11:00:44.586Z,17.81
2022-09-15T11:02:09.567Z,17.85
2022-09-15T11:03:57.789Z,17.83
2022-09-15T11:05:36.637Z,17.84
2022-09-15T11:06:50.116Z,17.88
2022-09-15T11:08:36.134Z,17.81
2022-09-15T11:09:49.253Z,17.87
2022-09-15T11:11:14.038Z,17.89
2022-09-15T11:12:48.797Z,17.93
2022-09-15T11:14:35.225Z,17.93
2022-09-15T11:15:56.576Z,17.98
2022-09-15T11:17:27.350Z,18.03
2022-09-15T11:18:47.578Z,18.12
2022-09-15T11:20:18.449Z,18.17
2022-09-15T11:21:31.517Z,18.16
2022-09-15T11:22:49.304Z,18.10
2022-09-15T11:24:30.191Z,18.12
2022-09-15T11:25:34.226Z,18.16
2022-09-15T11:26:54.687Z,18.16
2022-09-15T11:28:05.579Z,18.11
2022-09-15T11:29:30.338Z,18.05
2022-09-15T11:30:45.644Z,18.03
2022-09-15T11:31:55.279Z,18.03
2022-09-15T11:33:19.256Z,18.01
2022-09-15T11:34:29.867Z,17.95
2022-09-15T11:35:46.306Z,17.90
2022-09-15T11:36:53.534Z,17.84
2022-09-15T11:38:03.132Z,17.84
2022-09-15T11:39:12.918Z,17.86
2022-09-15T11:40:20.494Z,17.84
2022-09-15T11:41:34.243Z,17.82
2022-09-15T11:42:45.875Z,17.77
2022-09-15T11:43:53.960Z,17.77
2022-09-15T11:44:56.456Z,17.78
2022-09-15T11:46:01.644Z,17.80
2022-09-15T11:47:21.768Z,17.84
2022-09-15T11:48:47.423Z,17.86
2022-09-15T11:49:55.780Z,17.95
2022-09-15T11:51:01.582Z,18.03
2022-09-15T11:52:07.382Z,18.14
2022-09-15T11:53:25.974Z,18.23
2022-09-15T11:54:37.811Z,18.26
2022-09-15T11:55:44.004Z,18.29
2022-09-15T11:56:47.060Z,18.33
2022-09-15T11:58:18.431Z,18.31
2022-09-15T11:59:30.385Z,18.37
2022-09-15T12:00:33.112Z,18.40
2022-09-15T12:02:12.526Z,18.43
2022-09-15T12:03:20.070Z,18.42
2022-09-15T12:04:33.240Z,18.35
2022-09-15T12:05:46.153Z,18.31
2022-09-15T12:06:53.412Z,18.29
2022-09-15T12:08:14.338Z,18.29
2022-09-15T12:09:17.779Z,18.27
2022-09-15T12:10:35.245Z,18.24
2022-09-15T12:11:42.393Z,18.26
2022-09-15T12:12:46.130Z,18.31
2022-09-15T12:13:48.351Z,18.31
2022-09-15T12:14:52.106Z,18.31
2022-09-15T12:15:54.573Z,18.29
2022-09-15T12:16:57.774Z,18.25
2022-09-15T12:18:34.855Z,18.27
2022-09-15T12:19:57.263Z,18.30
2022-09-15T12:21:36.248Z,18.25
2022-09-15T12:22:59.813Z,18.20
2022-09-15T12:24:27.525Z,18.18
2022-09-15T12:25:45.710Z,18.19
2022-09-15T12:26:47.416Z,18.19
2022-09-15T12:28:23.453Z,18.22
2022-09-15T12:29:27.670Z,18.22
2022-09-15T12:30:41.265Z,18.22
2022-09-15T12:31:45.209Z,18.19
2022-09-15T12:32:46.710Z,18.17
2022-09-15T12:33:59.567Z,18.10
2022-09-15T12:35:17.960Z,18.06
2022-09-15T12:36:43.714Z,18.06
2022-09-15T12:37:48.491Z,18.04
2022-09-15T12:38:49.994Z,18.06
2022-09-15T12:39:52.341Z,18.00
2022-09-15T12:40:58.731Z,17.95
2022-09-15T12:42:00.131Z,17.90
2022-09-15T12:43:03.474Z,17.85
2022-09-15T12:44:29.537Z,17.84
2022-09-15T12:45:35.952Z,17.81
2022-09-15T12:46:37.634Z,17.80
2022-09-15T12:47:41.465Z,17.79
2022-09-15T12:48:46.810Z,17.75
2022-09-15T12:49:51.475Z,17.76
2022-09-15T12:51:03.124Z,17.72
2022-09-15T12:52:06.786Z,17.72
2022-09-15T12:53:24.385Z,17.71
2022-09-15T12:54:34.125Z,17.67
2022-09-15T12:55:37.775Z,17.69
2022-09-15T12:56:39.277Z,17.68
2022-09-15T12:57:40.780Z,17.69
2022-09-15T12:58:47.502Z,17.69
2022-09-15T12:59:49.006Z,17.73
2022-09-15T13:01:16.553Z,17.74
2022-09-15T13:02:45.870Z,17.73
2022-09-15T13:03:47.449Z,17.72
2022-09-15T13:04:54.640Z,17.69
2022-09-15T13:06:22.274Z,17.68
2022-09-15T13:07:33.705Z,17.59
2022-09-15T13:08:35.100Z,17.55
2022-09-15T13:09:43.415Z,17.52
2022-09-15T13:11:11.976Z,17.50
2022-09-15T13:12:17.599Z,17.44
2022-09-15T13:13:28.723Z,17.45
2022-09-15T13:14:37.669Z,17.41
2022-09-15T13:15:51.795Z,17.43
2022-09-15T13:17:03.706Z,17.44
2022-09-15T13:18:05.876Z,17.44
2022-09-15T13:19:13.279Z,17.41
2022-09-15T13:20:19.734Z,17.37
2022-09-15T13:21:22.913Z,17.41
2022-09-15T13:22:32.095Z,17.40
2022-09-15T13:23:38.227Z,17.47
2022-09-15T13:25:10.912Z,17.52
2022-09-15T13:26:17.936Z,17.53
2022-09-15T13:27:26.756Z,17.53
2022-09-15T13:28:28.518Z,17.53
2022-09-15T13:29:31.044Z,17.53
2022-09-15T13:30:54.736Z,17.50
2022-09-15T13:32:15.080Z,17.46
2022-09-15T13:35:27.985Z,17.50
2022-09-15T13:38:37.431Z,17.47
2022-09-15T13:40:22.313Z,17.42
2022-09-15T13:41:51.526Z,17.37
2022-09-15T13:43:05.212Z,17.37
2022-09-15T13:44:50.818Z,17.40
2022-09-15T13:46:13.321Z,17.39
2022-09-15T13:48:01.055Z,17.45
2022-09-15T13:49:28.757Z,17.46
2022-09-15T13:50:35.068Z,17.42
2022-09-15T13:51:39.421Z,17.39
2022-09-15T13:52:59.563Z,17.38
2022-09-15T13:54:21.310Z,17.35
2022-09-15T13:55:26.720Z,17.36
2022-09-15T13:56:58.826Z,17.34
2022-09-15T13:59:32.752Z,17.25
2022-09-15T14:00:48.227Z,17.20
2022-09-15T14:01:50.910Z,17.20
2022-09-15T14:02:57.602Z,17.19
2022-09-15T14:04:05.858Z,17.20
2022-09-15T14:05:08.544Z,17.19
2022-09-15T14:06:17.634Z,17.11
2022-09-15T14:07:24.700Z,17.08
2022-09-15T14:08:32.950Z,17.05
2022-09-15T14:09:45.402Z,17.05
2022-09-15T14:10:52.323Z,17.11
2022-09-15T14:11:57.717Z,17.15
2022-09-15T14:13:01.166Z,17.12
2022-09-15T14:14:29.377Z,17.16
2022-09-15T14:15:30.879Z,17.13
2022-09-15T14:16:37.870Z,17.13
2022-09-15T14:17:45.346Z,17.14
2022-09-15T14:18:47.113Z,17.16
2022-09-15T14:19:50.499Z,17.10
2022-09-15T14:21:05.441Z,17.13
2022-09-15T14:22:32.702Z,17.19
2022-09-15T14:23:45.663Z,17.19
2022-09-15T14:24:47.272Z,17.20
2022-09-15T14:25:49.077Z,17.23
2022-09-15T14:26:50.680Z,17.23
2022-09-15T14:27:54.027Z,17.20
2022-09-15T14:29:00.954Z,17.20
2022-09-15T14:30:06.754Z,17.21
2022-09-15T14:31:08.763Z,17.24